Time;durP1;ratioP1;P1;durP2;ratioP2;P2;SDS_P1;SDS_P2;PMS_P1;PMS_P2;Temp;Humidity;BMP_temperature;BMP_pressure;BME280_temperature;BME280_humidity;BME280_pressure;Samples;Min_cycle;Max_cycle;Signal;HPM_P1;HPM_P2
2021/10/21 00:00:47;;;;;;;1.00;0.67;;;13.70;99.90;;;;;;4974994;28;20453;-85
2021/10/21 00:03:14;;;;;;;1.03;0.60;;;13.70;99.90;;;;;;4976602;28;20508;-85
2021/10/21 00:05:42;;;;;;;0.70;0.70;;;13.60;99.90;;;;;;4974736;28;20489;-84
2021/10/21 00:08:09;;;;;;;0.73;0.70;;;13.60;99.90;;;;;;4974817;28;20450;-85
2021/10/21 00:10:36;;;;;;;0.93;0.60;;;13.60;99.90;;;;;;4974746;28;20453;-85
2021/10/21 00:13:04;;;;;;;0.80;0.80;;;13.60;99.90;;;;;;4974604;28;20481;-85
2021/10/21 00:15:31;;;;;;;1.13;0.50;;;13.60;99.90;;;;;;4974640;28;20456;-84
2021/10/21 00:17:58;;;;;;;0.70;0.40;;;13.60;99.90;;;;;;4974377;28;20441;-84
2021/10/21 00:20:24;;;;;;;0.83;0.47;;;13.60;99.90;;;;;;4974570;28;20453;-84
2021/10/21 00:22:52;;;;;;;0.30;0.30;;;13.60;99.90;;;;;;4974602;28;20481;-87
2021/10/21 00:25:19;;;;;;;1.50;0.80;;;13.60;99.90;;;;;;4976126;28;20519;-88
2021/10/21 00:27:46;;;;;;;1.30;0.57;;;13.50;99.90;;;;;;4978737;28;20475;-85
2021/10/21 00:30:13;;;;;;;0.40;0.40;;;13.50;99.90;;;;;;4978576;28;20464;-84
2021/10/21 00:32:41;;;;;;;0.60;0.40;;;13.50;99.90;;;;;;4978446;28;20472;-83
2021/10/21 00:35:09;;;;;;;0.53;0.53;;;13.50;99.90;;;;;;4978310;28;20532;-84
2021/10/21 00:37:36;;;;;;;0.50;0.50;;;13.50;99.90;;;;;;4978159;28;20948;-83
2021/10/21 00:40:06;;;;;;;0.53;0.40;;;13.50;99.90;;;;;;4978323;28;20460;-86
2021/10/21 00:42:32;;;;;;;0.40;0.40;;;13.50;99.90;;;;;;4977981;28;20977;-82
2021/10/21 00:44:59;;;;;;;0.50;0.50;;;13.60;99.90;;;;;;4978386;28;20840;-84
2021/10/21 00:47:26;;;;;;;0.70;0.70;;;13.50;99.90;;;;;;4977996;28;20458;-83
2021/10/21 00:49:53;;;;;;;3.10;0.73;;;13.50;99.90;;;;;;4978093;28;20840;-84
2021/10/21 00:52:20;;;;;;;0.60;0.60;;;13.50;99.90;;;;;;4977772;28;20985;-84
2021/10/21 00:54:47;;;;;;;0.70;0.70;;;13.50;99.90;;;;;;4978348;28;20436;-84
2021/10/21 00:57:16;;;;;;;1.57;0.60;;;13.50;99.90;;;;;;4978062;28;20452;-85
2021/10/21 00:59:44;;;;;;;0.40;0.40;;;13.50;99.90;;;;;;4978174;28;20822;-85
2021/10/21 01:02:12;;;;;;;0.60;0.60;;;13.50;99.90;;;;;;4977839;28;20465;-84
2021/10/21 01:04:39;;;;;;;2.93;1.73;;;13.50;99.90;;;;;;4977604;28;20484;-86
2021/10/21 01:07:07;;;;;;;0.60;0.40;;;13.50;99.90;;;;;;4977688;28;20433;-84
2021/10/21 01:09:34;;;;;;;0.60;0.60;;;13.50;99.90;;;;;;4977502;28;20484;-84
2021/10/21 01:12:02;;;;;;;0.50;0.50;;;13.50;99.90;;;;;;4977994;28;20457;-85
2021/10/21 01:14:30;;;;;;;1.67;1.00;;;13.50;99.90;;;;;;4978215;28;20464;-84
2021/10/21 01:16:57;;;;;;;1.10;0.80;;;13.40;99.90;;;;;;4977875;28;20941;-85
2021/10/21 01:19:25;;;;;;;0.97;0.50;;;13.40;99.90;;;;;;4977506;28;20441;-85
2021/10/21 01:21:55;;;;;;;0.40;0.40;;;13.40;99.90;;;;;;4977217;28;20465;-85
2021/10/21 01:24:24;;;;;;;0.60;0.40;;;13.40;99.90;;;;;;4977542;28;20473;-84
2021/10/21 01:26:52;;;;;;;0.50;0.50;;;13.40;99.90;;;;;;4977514;28;20540;-84
2021/10/21 01:29:20;;;;;;;0.37;0.33;;;13.40;99.90;;;;;;4977143;28;20983;-84
2021/10/21 01:31:48;;;;;;;1.13;1.13;;;13.40;99.90;;;;;;4977379;28;20480;-84
2021/10/21 01:34:16;;;;;;;1.73;0.80;;;13.40;99.90;;;;;;4977389;28;20449;-84
2021/10/21 01:36:44;;;;;;;0.30;0.30;;;13.40;99.90;;;;;;4976995;28;20460;-84
2021/10/21 01:39:13;;;;;;;0.57;0.57;;;13.30;99.90;;;;;;4977413;28;20818;-86
2021/10/21 01:41:40;;;;;;;0.53;0.53;;;13.30;99.90;;;;;;4977448;28;20834;-86
2021/10/21 01:44:07;;;;;;;0.70;0.63;;;13.30;99.90;;;;;;4983313;28;20449;-87
2021/10/21 01:46:34;;;;;;;0.30;0.30;;;13.30;99.90;;;;;;4977810;28;20429;-87
2021/10/21 01:49:00;;;;;;;0.40;0.40;;;13.40;99.90;;;;;;4977369;28;20457;-85
2021/10/21 01:51:27;;;;;;;0.40;0.33;;;13.40;99.90;;;;;;4977033;28;20478;-85
2021/10/21 01:53:54;;;;;;;1.07;0.50;;;13.50;99.90;;;;;;4977171;28;20437;-85
2021/10/21 01:56:23;;;;;;;0.60;0.60;;;13.40;99.90;;;;;;4977059;28;20455;-85
2021/10/21 01:58:50;;;;;;;0.40;0.30;;;13.50;99.90;;;;;;4977005;28;20453;-83
2021/10/21 02:01:17;;;;;;;0.40;0.40;;;13.50;99.90;;;;;;4976815;28;20448;-83
2021/10/21 02:03:43;;;;;;;0.40;0.37;;;13.50;99.90;;;;;;4976883;28;20446;-84
2021/10/21 02:06:10;;;;;;;0.30;0.30;;;13.50;99.90;;;;;;4976682;28;20492;-83
2021/10/21 02:08:37;;;;;;;0.30;0.30;;;13.50;99.90;;;;;;4977008;28;20449;-90
2021/10/21 02:11:04;;;;;;;0.30;0.20;;;13.50;99.90;;;;;;4977400;28;20460;-92
2021/10/21 02:13:32;;;;;;;0.30;0.30;;;13.60;99.90;;;;;;4977692;28;20453;-89
2021/10/21 02:15:59;;;;;;;0.40;0.33;;;13.60;99.90;;;;;;4977417;28;20434;-86
2021/10/21 02:18:27;;;;;;;0.30;0.30;;;13.60;99.90;;;;;;4977409;28;20453;-88
2021/10/21 02:20:54;;;;;;;0.70;0.33;;;13.60;99.90;;;;;;4977671;28;20450;-91
2021/10/21 02:23:20;;;;;;;1.37;1.37;;;13.50;99.90;;;;;;4977035;28;21013;-90
2021/10/21 02:25:47;;;;;;;1.07;1.07;;;13.60;99.90;;;;;;4976829;28;20489;-90
2021/10/21 02:28:14;;;;;;;0.63;0.63;;;13.60;99.90;;;;;;4977367;28;20460;-92
2021/10/21 02:30:42;;;;;;;0.40;0.30;;;13.60;99.90;;;;;;4977246;28;20433;-90
2021/10/21 02:33:09;;;;;;;0.33;0.30;;;13.60;99.90;;;;;;4976789;28;20468;-89
2021/10/21 02:35:35;;;;;;;0.50;0.50;;;13.60;99.90;;;;;;4976686;28;20937;-85
2021/10/21 02:38:02;;;;;;;0.50;0.50;;;13.60;99.90;;;;;;4976491;28;20449;-86
2021/10/21 02:40:29;;;;;;;0.30;0.30;;;13.60;99.90;;;;;;4976462;28;20485;-85
2021/10/21 02:42:56;;;;;;;2.10;0.40;;;13.60;99.90;;;;;;4975928;28;20461;-84
2021/10/21 02:45:22;;;;;;;0.43;0.43;;;13.60;99.90;;;;;;4975827;28;21004;-83
2021/10/21 02:47:51;;;;;;;0.40;0.40;;;13.50;99.90;;;;;;4975449;28;20945;-85
2021/10/21 02:50:18;;;;;;;0.40;0.40;;;13.60;99.90;;;;;;4975824;28;20814;-84
2021/10/21 02:52:44;;;;;;;0.40;0.40;;;13.50;99.90;;;;;;4976064;28;20469;-83
2021/10/21 02:55:11;;;;;;;0.40;0.30;;;13.50;99.90;;;;;;4976643;28;20465;-83
2021/10/21 02:57:38;;;;;;;0.40;0.30;;;13.50;99.90;;;;;;4976011;28;20464;-86
2021/10/21 03:00:07;;;;;;;0.30;0.30;;;13.60;99.90;;;;;;4975890;28;21012;-87
2021/10/21 03:02:33;;;;;;;0.60;0.40;;;13.60;99.90;;;;;;4975981;28;20453;-86
2021/10/21 03:05:01;;;;;;;0.30;0.30;;;13.60;99.90;;;;;;4975755;28;20576;-81
2021/10/21 03:07:28;;;;;;;0.50;0.43;;;13.50;99.90;;;;;;4975575;28;20452;-81
2021/10/21 03:09:55;;;;;;;0.30;0.30;;;13.50;99.90;;;;;;4975678;28;20504;-80
2021/10/21 03:12:22;;;;;;;0.40;0.30;;;13.50;99.90;;;;;;4975479;28;20488;-85
2021/10/21 03:14:48;;;;;;;0.93;0.40;;;13.50;99.90;;;;;;4975906;28;20452;-87
2021/10/21 03:17:15;;;;;;;0.30;0.30;;;13.50;99.90;;;;;;4975732;28;20954;-87
2021/10/21 03:19:42;;;;;;;0.37;0.37;;;13.50;99.90;;;;;;4975836;28;20456;-85
2021/10/21 03:22:10;;;;;;;0.30;0.27;;;13.50;99.90;;;;;;4975911;28;20473;-88
2021/10/21 03:24:37;;;;;;;0.30;0.30;;;13.50;99.90;;;;;;4975551;28;20452;-86
2021/10/21 03:27:04;;;;;;;0.40;0.30;;;13.40;99.90;;;;;;4975967;28;20438;-86
2021/10/21 03:29:31;;;;;;;0.30;0.27;;;13.40;99.90;;;;;;4976130;28;20449;-86
2021/10/21 03:31:58;;;;;;;0.30;0.30;;;13.40;99.90;;;;;;4975899;28;20476;-88
2021/10/21 03:34:24;;;;;;;0.30;0.30;;;13.50;99.90;;;;;;4975717;28;20449;-86
2021/10/21 03:36:52;;;;;;;0.30;0.30;;;13.40;99.90;;;;;;4975967;28;20449;-89
2021/10/21 03:39:20;;;;;;;0.30;0.30;;;13.40;99.90;;;;;;4975707;28;20442;-87
2021/10/21 03:41:47;;;;;;;0.30;0.20;;;13.30;99.90;;;;;;4975860;28;20483;-88
2021/10/21 03:44:14;;;;;;;0.40;0.27;;;13.30;99.90;;;;;;4981583;28;20453;-93
2021/10/21 03:46:40;;;;;;;0.93;0.30;;;13.20;99.90;;;;;;4978993;28;20489;-92
2021/10/21 03:49:07;;;;;;;0.30;0.30;;;13.20;99.90;;;;;;4976150;28;20435;-90
2021/10/21 03:51:34;;;;;;;0.30;0.20;;;13.10;99.90;;;;;;4976223;28;20468;-91
2021/10/21 03:54:01;;;;;;;0.40;0.30;;;13.10;99.90;;;;;;4976469;28;20433;-91
2021/10/21 03:56:29;;;;;;;0.40;0.30;;;13.10;99.90;;;;;;4981825;28;20841;-90
2021/10/21 03:58:55;;;;;;;0.70;0.57;;;13.10;99.90;;;;;;4977332;28;20438;-90
2021/10/21 04:01:22;;;;;;;0.30;0.30;;;12.90;99.90;;;;;;4975429;28;20993;-88
2021/10/21 04:03:49;;;;;;;0.87;0.27;;;12.90;99.90;;;;;;4976063;28;20441;-89
2021/10/21 04:06:16;;;;;;;0.33;0.27;;;12.80;99.90;;;;;;4975614;28;20476;-89
2021/10/21 04:08:42;;;;;;;0.30;0.30;;;12.80;99.90;;;;;;4975436;28;20449;-87
2021/10/21 04:11:09;;;;;;;0.40;0.30;;;12.70;99.90;;;;;;4974955;28;20434;-89
2021/10/21 04:13:37;;;;;;;0.30;0.20;;;12.60;99.90;;;;;;4975078;28;20453;-88
2021/10/21 04:16:04;;;;;;;0.30;0.30;;;12.60;99.90;;;;;;4975231;28;20457;-87
2021/10/21 04:18:31;;;;;;;0.30;0.30;;;12.60;99.90;;;;;;4975489;28;20558;-87
2021/10/21 04:20:58;;;;;;;0.30;0.20;;;12.40;99.90;;;;;;4975163;28;20457;-87
2021/10/21 04:23:24;;;;;;;0.40;0.30;;;12.30;99.90;;;;;;4975027;28;20434;-87
2021/10/21 04:25:51;;;;;;;0.30;0.30;;;12.20;99.90;;;;;;4974760;28;20500;-87
2021/10/21 04:28:18;;;;;;;0.40;0.30;;;12.10;99.90;;;;;;4975259;28;20816;-89
2021/10/21 04:30:46;;;;;;;0.30;0.20;;;12.00;99.90;;;;;;4975012;28;20485;-90
2021/10/21 04:33:13;;;;;;;0.30;0.20;;;12.00;99.90;;;;;;4974472;28;20457;-82
2021/10/21 04:35:40;;;;;;;0.30;0.30;;;11.90;99.90;;;;;;4974472;28;20449;-84
2021/10/21 04:38:06;;;;;;;0.30;0.20;;;11.90;99.90;;;;;;4974145;28;20979;-82
2021/10/21 04:40:33;;;;;;;0.30;0.20;;;11.80;99.90;;;;;;4974117;28;20473;-82
2021/10/21 04:43:00;;;;;;;0.30;0.20;;;11.80;99.90;;;;;;4974486;28;20492;-84
2021/10/21 04:45:27;;;;;;;0.30;0.20;;;11.70;99.90;;;;;;4974355;28;20492;-83
2021/10/21 04:47:57;;;;;;;0.30;0.30;;;11.80;99.90;;;;;;4975616;28;20453;-83
2021/10/21 04:50:24;;;;;;;0.40;0.30;;;11.70;99.90;;;;;;4975143;28;20504;-87
2021/10/21 04:52:52;;;;;;;0.30;0.20;;;11.70;99.90;;;;;;4974920;28;20888;-88
2021/10/21 04:55:20;;;;;;;0.30;0.30;;;11.60;99.90;;;;;;4975261;28;20529;-89
2021/10/21 04:57:47;;;;;;;0.30;0.20;;;11.60;99.90;;;;;;4974734;28;20553;-86
2021/10/21 05:00:15;;;;;;;0.30;0.30;;;11.50;99.90;;;;;;4974505;28;20452;-86
2021/10/21 05:02:41;;;;;;;0.30;0.20;;;11.30;99.90;;;;;;4974729;28;20469;-88
2021/10/21 05:05:10;;;;;;;0.30;0.20;;;11.30;99.90;;;;;;4974988;28;20449;-89
2021/10/21 05:07:37;;;;;;;0.40;0.30;;;11.30;99.90;;;;;;4974605;28;20429;-89
2021/10/21 05:10:05;;;;;;;0.60;0.60;;;11.20;99.90;;;;;;4974536;28;20444;-88
2021/10/21 05:12:32;;;;;;;0.30;0.30;;;11.20;99.90;;;;;;4976713;28;20476;-86
2021/10/21 05:14:59;;;;;;;0.30;0.20;;;11.20;99.90;;;;;;4978210;28;20949;-87
2021/10/21 05:17:26;;;;;;;0.40;0.30;;;11.20;99.90;;;;;;4978875;28;20457;-91
2021/10/21 05:19:53;;;;;;;0.30;0.30;;;11.10;99.90;;;;;;4978293;28;20459;-86
2021/10/21 05:22:21;;;;;;;0.37;0.37;;;11.10;99.90;;;;;;4977854;28;20473;-81
2021/10/21 05:24:48;;;;;;;0.40;0.30;;;11.00;99.90;;;;;;4978227;28;20883;-86
2021/10/21 05:27:15;;;;;;;0.30;0.20;;;11.00;99.90;;;;;;4977443;28;20995;-85
2021/10/21 05:29:41;;;;;;;0.30;0.30;;;11.00;99.90;;;;;;4977351;28;20438;-86
2021/10/21 05:32:08;;;;;;;0.30;0.20;;;11.00;99.90;;;;;;4977547;28;20454;-83
2021/10/21 05:34:35;;;;;;;0.30;0.20;;;11.00;99.90;;;;;;4977650;28;20448;-85
2021/10/21 05:37:04;;;;;;;0.30;0.20;;;11.00;99.90;;;;;;4977329;28;20450;-86
2021/10/21 05:39:32;;;;;;;0.30;0.20;;;11.00;99.90;;;;;;4977614;28;20455;-81
2021/10/21 05:42:00;;;;;;;0.30;0.30;;;11.00;99.90;;;;;;4977466;28;20980;-84
2021/10/21 05:44:27;;;;;;;0.30;0.20;;;11.00;99.90;;;;;;4977321;28;20791;-83
2021/10/21 05:46:54;;;;;;;0.30;0.20;;;11.00;99.90;;;;;;4977476;28;20571;-83
2021/10/21 05:49:20;;;;;;;1.37;0.30;;;10.90;99.90;;;;;;4977395;28;20445;-85
2021/10/21 05:51:48;;;;;;;0.30;0.27;;;10.80;99.90;;;;;;4976812;28;20465;-81
2021/10/21 05:54:15;;;;;;;0.30;0.20;;;10.80;99.90;;;;;;4977939;28;20789;-86
2021/10/21 05:56:43;;;;;;;0.30;0.20;;;10.70;99.90;;;;;;4977148;28;20446;-87
2021/10/21 05:59:10;;;;;;;0.30;0.20;;;10.70;99.90;;;;;;4977862;28;20445;-87
2021/10/21 06:01:37;;;;;;;0.30;0.20;;;10.70;99.90;;;;;;4977495;28;20834;-88
2021/10/21 06:04:04;;;;;;;0.40;0.30;;;10.70;99.90;;;;;;4977062;28;20445;-86
2021/10/21 06:06:34;;;;;;;0.30;0.30;;;10.80;99.90;;;;;;4976993;28;20469;-83
2021/10/21 06:09:02;;;;;;;0.90;0.30;;;10.90;99.90;;;;;;4976999;28;20508;-88
2021/10/21 06:11:29;;;;;;;0.30;0.27;;;11.00;99.90;;;;;;4977212;28;20954;-83
2021/10/21 06:13:58;;;;;;;0.30;0.20;;;11.00;99.90;;;;;;4976657;28;20457;-84
2021/10/21 06:16:24;;;;;;;0.30;0.20;;;11.10;99.90;;;;;;4976673;28;20458;-88
2021/10/21 06:18:51;;;;;;;3.60;0.97;;;11.10;99.90;;;;;;4976675;28;20937;-86
2021/10/21 06:21:22;;;;;;;0.30;0.20;;;11.20;99.90;;;;;;4976701;28;20485;-80
2021/10/21 06:23:49;;;;;;;0.40;0.30;;;11.30;99.90;;;;;;4976577;28;20477;-83
2021/10/21 06:26:17;;;;;;;0.30;0.20;;;11.40;99.90;;;;;;4976034;28;20488;-84
2021/10/21 06:28:43;;;;;;;0.40;0.30;;;11.40;99.90;;;;;;4976459;28;20453;-83
2021/10/21 06:31:13;;;;;;;0.30;0.30;;;11.40;99.90;;;;;;4976426;28;20446;-83
2021/10/21 06:33:40;;;;;;;0.30;0.20;;;11.40;99.90;;;;;;4976324;28;20469;-84
2021/10/21 06:36:06;;;;;;;0.30;0.30;;;11.40;99.90;;;;;;4976121;28;20786;-83
2021/10/21 06:38:33;;;;;;;0.30;0.30;;;11.40;99.90;;;;;;4976223;28;20441;-83
2021/10/21 06:41:01;;;;;;;0.30;0.20;;;11.40;99.90;;;;;;4976251;28;20438;-83
2021/10/21 06:43:27;;;;;;;0.30;0.20;;;11.50;99.90;;;;;;4976071;28;20449;-84
2021/10/21 06:45:54;;;;;;;0.97;0.97;;;11.50;99.90;;;;;;4976478;28;20835;-84
2021/10/21 06:48:22;;;;;;;0.30;0.20;;;11.50;99.90;;;;;;4976238;28;20808;-85
2021/10/21 06:50:49;;;;;;;0.30;0.20;;;11.60;99.90;;;;;;4976196;28;20434;-84
2021/10/21 06:53:17;;;;;;;0.57;0.30;;;11.60;99.90;;;;;;4975756;28;20458;-83
2021/10/21 06:55:44;;;;;;;0.30;0.30;;;11.60;99.90;;;;;;4976148;28;20446;-86
2021/10/21 06:58:11;;;;;;;0.30;0.20;;;11.70;99.90;;;;;;4975838;28;20442;-83
2021/10/21 07:00:39;;;;;;;0.30;0.20;;;11.80;99.90;;;;;;4975865;28;20457;-82
2021/10/21 07:03:06;;;;;;;0.30;0.20;;;11.90;99.90;;;;;;4975428;28;20453;-81
2021/10/21 07:05:39;;;;;;;0.30;0.20;;;12.00;99.90;;;;;;4975451;28;20815;-85
2021/10/21 07:08:06;;;;;;;0.30;0.20;;;12.20;99.90;;;;;;4975824;28;20463;-83
2021/10/21 07:10:33;;;;;;;0.30;0.20;;;12.30;99.90;;;;;;4975527;28;20962;-85
2021/10/21 07:13:03;;;;;;;0.30;0.20;;;12.40;99.90;;;;;;4975560;28;20477;-85
2021/10/21 07:15:29;;;;;;;0.30;0.20;;;12.50;99.90;;;;;;4975572;28;20853;-83
2021/10/21 07:17:56;;;;;;;0.30;0.20;;;12.50;99.90;;;;;;4975600;28;20457;-81
2021/10/21 07:20:23;;;;;;;0.30;0.20;;;12.50;99.90;;;;;;4975735;28;20456;-86
2021/10/21 07:22:51;;;;;;;0.50;0.50;;;12.50;99.90;;;;;;4975579;28;20839;-80
2021/10/21 07:25:18;;;;;;;0.30;0.30;;;12.60;99.90;;;;;;4975200;28;20516;-82
2021/10/21 07:27:45;;;;;;;0.30;0.30;;;12.60;99.90;;;;;;4974978;28;21012;-83
2021/10/21 07:30:12;;;;;;;0.30;0.20;;;12.70;99.90;;;;;;4975491;28;20449;-83
2021/10/21 07:32:39;;;;;;;0.30;0.20;;;12.70;99.90;;;;;;4975640;28;20496;-86
2021/10/21 07:35:07;;;;;;;0.30;0.30;;;12.80;99.90;;;;;;4975177;28;20419;-86
2021/10/21 07:37:34;;;;;;;0.80;0.30;;;12.70;99.90;;;;;;4975350;28;20437;-83
2021/10/21 07:40:02;;;;;;;0.30;0.20;;;12.70;99.90;;;;;;4974926;28;20437;-84
2021/10/21 07:42:33;;;;;;;0.30;0.20;;;12.70;99.90;;;;;;4975437;28;20476;-86
2021/10/21 07:45:00;;;;;;;0.30;0.20;;;12.70;99.90;;;;;;4975291;28;20489;-83
2021/10/21 07:47:27;;;;;;;0.30;0.30;;;12.70;99.90;;;;;;4975192;28;20844;-84
2021/10/21 07:49:54;;;;;;;0.30;0.30;;;12.70;99.90;;;;;;4975362;28;20465;-84
2021/10/21 07:52:22;;;;;;;0.30;0.20;;;12.70;99.90;;;;;;4974945;28;20472;-84
2021/10/21 07:54:48;;;;;;;0.40;0.30;;;12.70;99.90;;;;;;4975077;28;20449;-82
2021/10/21 07:57:19;;;;;;;0.30;0.20;;;12.70;99.90;;;;;;4975345;28;20837;-82
2021/10/21 07:59:46;;;;;;;0.77;0.30;;;12.70;99.90;;;;;;4974853;28;20438;-83
2021/10/21 08:02:14;;;;;;;0.30;0.20;;;12.70;99.90;;;;;;4974788;28;20469;-83
2021/10/21 08:04:41;;;;;;;0.60;0.30;;;12.70;99.90;;;;;;4975009;28;20456;-87
2021/10/21 08:07:08;;;;;;;0.30;0.20;;;12.70;99.90;;;;;;4974502;28;20481;-83
2021/10/21 08:09:34;;;;;;;0.30;0.20;;;12.80;99.90;;;;;;4974724;28;20452;-81
2021/10/21 08:12:04;;;;;;;0.57;0.27;;;12.80;99.90;;;;;;4974322;28;20473;-81
2021/10/21 08:14:32;;;;;;;0.30;0.30;;;12.80;99.90;;;;;;4974273;28;20949;-80
2021/10/21 08:16:59;;;;;;;0.30;0.30;;;12.80;99.90;;;;;;4974602;28;20857;-84
2021/10/21 08:19:26;;;;;;;0.30;0.20;;;12.80;99.90;;;;;;4974779;28;20461;-81
2021/10/21 08:21:53;;;;;;;0.30;0.20;;;12.80;99.90;;;;;;4974517;28;20560;-81
2021/10/21 08:24:22;;;;;;;0.30;0.30;;;12.80;99.90;;;;;;4974522;28;20455;-80
2021/10/21 08:26:49;;;;;;;0.30;0.20;;;12.80;99.90;;;;;;4973962;28;20536;-81
2021/10/21 08:29:16;;;;;;;0.30;0.20;;;12.80;99.90;;;;;;4974534;28;20448;-80
2021/10/21 08:31:45;;;;;;;0.30;0.30;;;12.90;99.90;;;;;;4974510;28;20468;-82
2021/10/21 08:34:11;;;;;;;0.30;0.20;;;13.00;99.90;;;;;;4974522;28;20460;-85
2021/10/21 08:36:38;;;;;;;0.30;0.20;;;13.10;99.90;;;;;;4974856;28;20821;-82
2021/10/21 08:39:07;;;;;;;0.30;0.30;;;13.10;99.90;;;;;;4974756;28;20465;-81
2021/10/21 08:41:34;;;;;;;0.30;0.23;;;13.20;99.90;;;;;;4974519;28;20477;-83
2021/10/21 08:44:01;;;;;;;0.30;0.20;;;13.20;99.90;;;;;;4974442;28;20457;-87
2021/10/21 08:46:28;;;;;;;0.30;0.30;;;13.30;99.90;;;;;;4975171;28;20544;-87
2021/10/21 08:48:57;;;;;;;0.30;0.30;;;13.20;99.90;;;;;;4978512;28;20457;-85
2021/10/21 08:51:24;;;;;;;0.30;0.20;;;13.10;99.90;;;;;;4978699;28;20477;-83
2021/10/21 08:53:51;;;;;;;0.30;0.20;;;13.00;99.90;;;;;;4978383;28;20445;-82
2021/10/21 08:56:21;;;;;;;0.30;0.20;;;13.00;99.90;;;;;;4978259;28;20460;-83
2021/10/21 08:58:49;;;;;;;0.30;0.30;;;12.80;99.90;;;;;;4978350;28;20434;-84
2021/10/21 09:01:18;;;;;;;0.30;0.20;;;12.70;99.90;;;;;;4978249;28;20489;-81
2021/10/21 09:04:00;;;;;;;0.30;0.20;;;12.50;99.90;;;;;;4977862;28;20933;-80
2021/10/21 09:06:48;;;;;;;0.30;0.30;;;12.30;99.90;;;;;;4977913;28;20981;-82
2021/10/21 09:09:19;;;;;;;0.30;0.20;;;12.10;99.90;;;;;;4978310;28;20441;-86
2021/10/21 09:11:47;;;;;;;0.30;0.20;;;11.90;99.90;;;;;;4978228;28;20477;-82
2021/10/21 09:14:15;;;;;;;0.30;0.30;;;11.80;99.90;;;;;;4977872;28;20441;-82
2021/10/21 09:16:42;;;;;;;0.30;0.20;;;11.70;99.90;;;;;;4977751;28;20453;-82
2021/10/21 09:19:13;;;;;;;0.30;0.20;;;11.70;99.90;;;;;;4977463;28;20957;-83
2021/10/21 09:21:42;;;;;;;0.30;0.20;;;11.70;99.90;;;;;;4977356;28;20980;-83
2021/10/21 09:24:27;;;;;;;0.30;0.20;;;11.80;99.90;;;;;;4977674;28;20453;-82
2021/10/21 09:27:03;;;;;;;0.30;0.20;;;12.10;99.90;;;;;;4977411;28;20485;-84
2021/10/21 09:29:30;;;;;;;0.30;0.30;;;12.70;99.90;;;;;;4977224;28;20433;-83
2021/10/21 09:32:11;;;;;;;0.30;0.30;;;13.30;99.90;;;;;;4977587;28;20477;-85
2021/10/21 09:34:46;;;;;;;0.30;0.20;;;14.30;99.90;;;;;;4977515;28;20802;-83
2021/10/21 09:37:16;;;;;;;0.67;0.67;;;15.40;99.90;;;;;;4977416;28;20440;-87
2021/10/21 09:39:49;;;;;;;0.30;0.30;;;16.10;99.90;;;;;;4977339;28;20461;-85
2021/10/21 09:42:17;;;;;;;0.30;0.20;;;16.50;99.90;;;;;;4977238;28;20480;-83
2021/10/21 09:44:44;;;;;;;0.30;0.20;;;16.70;99.90;;;;;;4977315;28;20453;-84
2021/10/21 09:47:19;;;;;;;0.30;0.20;;;16.80;99.90;;;;;;4977072;28;20477;-82
2021/10/21 09:49:47;;;;;;;0.30;0.20;;;16.80;99.90;;;;;;4977187;28;20452;-81
2021/10/21 09:52:22;;;;;;;0.30;0.20;;;17.20;99.90;;;;;;4977066;28;20485;-82
2021/10/21 09:54:50;;;;;;;0.30;0.30;;;17.50;99.90;;;;;;4977205;28;20421;-82
2021/10/21 09:57:18;;;;;;;0.30;0.30;;;17.60;99.90;;;;;;4976495;28;20857;-82
2021/10/21 09:59:46;;;;;;;0.30;0.30;;;17.40;99.90;;;;;;4976883;28;20468;-84
2021/10/21 10:02:17;;;;;;;0.30;0.30;;;16.80;99.90;;;;;;4976895;28;20519;-82
2021/10/21 10:04:49;;;;;;;1.17;0.27;;;16.10;99.90;;;;;;4977030;28;20445;-82
2021/10/21 10:07:16;;;;;;;0.30;0.20;;;15.60;99.90;;;;;;4976520;28;21090;-85
2021/10/21 10:09:44;;;;;;;0.30;0.20;;;15.20;99.90;;;;;;4976494;28;20961;-83
2021/10/21 10:12:12;;;;;;;0.30;0.20;;;15.10;99.90;;;;;;4976712;28;20528;-82
2021/10/21 10:14:40;;;;;;;0.30;0.20;;;16.00;99.90;;;;;;4976396;28;20464;-86
2021/10/21 10:17:07;;;;;;;0.30;0.30;;;16.70;99.90;;;;;;4977164;28;20449;-82
2021/10/21 10:19:34;;;;;;;0.30;0.30;;;16.70;99.90;;;;;;4976522;28;20470;-82
2021/10/21 10:22:06;;;;;;;0.30;0.20;;;16.40;99.90;;;;;;4976593;28;20473;-84
2021/10/21 10:24:34;;;;;;;0.30;0.30;;;16.10;99.90;;;;;;4976199;28;20433;-84
2021/10/21 10:27:03;;;;;;;0.30;0.30;;;15.80;99.90;;;;;;4976860;28;20505;-83
2021/10/21 10:29:48;;;;;;;0.30;0.20;;;15.40;99.90;;;;;;4976411;28;20453;-82
2021/10/21 10:32:48;;;;;;;0.30;0.30;;;15.40;99.90;;;;;;4976358;28;20474;-82
2021/10/21 10:35:30;;;;;;;0.30;0.20;;;15.20;99.90;;;;;;4897863;29;20917;-83
2021/10/21 10:37:59;;;;;;;0.70;0.30;;;15.30;99.90;;;;;;4967511;28;20445;-83
2021/10/21 10:40:40;;;;;;;0.33;0.33;;;15.40;99.90;;;;;;4976379;28;20437;-82
2021/10/21 10:43:08;;;;;;;0.30;0.20;;;15.20;99.90;;;;;;4976130;28;20560;-81
2021/10/21 10:45:46;;;;;;;0.30;0.30;;;15.20;99.90;;;;;;4976208;28;20441;-82
2021/10/21 10:48:14;;;;;;;0.30;0.23;;;15.20;99.90;;;;;;4975930;28;20980;-82
2021/10/21 10:50:55;;;;;;;0.33;0.30;;;15.20;99.90;;;;;;4975751;28;20419;-84
2021/10/21 10:53:50;;;;;;;0.40;0.30;;;15.20;99.90;;;;;;4975625;28;20474;-81
2021/10/21 10:56:44;;;;;;;0.40;0.30;;;15.10;99.90;;;;;;4976116;28;20868;-85
2021/10/21 10:59:33;;;;;;;0.30;0.20;;;15.30;99.90;;;;;;4969757;28;20512;-81
2021/10/21 11:02:01;;;;;;;0.30;0.20;;;15.20;99.90;;;;;;4971912;28;20477;-83
2021/10/21 11:05:03;;;;;;;0.30;0.20;;;15.30;99.90;;;;;;4975988;28;20456;-85
2021/10/21 11:07:47;;;;;;;0.40;0.30;;;15.30;99.90;;;;;;4970603;28;20510;-84
2021/10/21 11:10:38;;;;;;;0.40;0.30;;;15.30;99.90;;;;;;4975105;28;20804;-85
2021/10/21 11:13:19;;;;;;;0.30;0.20;;;15.20;99.90;;;;;;4975643;28;20476;-80
2021/10/21 11:15:47;;;;;;;0.40;0.30;;;15.10;99.90;;;;;;4975527;28;20461;-83
2021/10/21 11:18:23;;;;;;;0.30;0.30;;;15.10;99.90;;;;;;4975679;28;20461;-81
2021/10/21 11:46:15;;;;;;;0.30;0.20;;;14.60;99.90;;;;;;4897858;29;20504;-93
2021/10/21 11:48:42;;;;;;;0.40;0.30;;;14.50;99.90;;;;;;4903575;29;20501;-91
2021/10/21 11:51:12;;;;;;;0.30;0.30;;;14.50;99.90;;;;;;4901396;29;20449;-93
2021/10/21 11:53:40;;;;;;;0.30;0.30;;;14.50;99.90;;;;;;4900545;29;20445;-91
2021/10/21 11:56:07;;;;;;;0.40;0.40;;;14.50;99.90;;;;;;4899683;29;20461;-89
2021/10/21 11:58:38;;;;;;;0.77;0.30;;;14.30;99.90;;;;;;4899724;29;20520;-89
2021/10/21 12:01:06;;;;;;;0.40;0.30;;;14.20;99.90;;;;;;4899576;29;20910;-90
2021/10/21 12:03:36;;;;;;;0.30;0.30;;;14.20;99.90;;;;;;4899437;29;20453;-89
2021/10/21 12:06:04;;;;;;;0.30;0.30;;;14.20;99.90;;;;;;4899411;29;20469;-89
2021/10/21 12:08:31;;;;;;;0.30;0.23;;;14.20;99.90;;;;;;4899439;29;20502;-91
2021/10/21 12:11:00;;;;;;;0.30;0.20;;;14.10;99.90;;;;;;4899466;29;20464;-91
2021/10/21 12:13:28;;;;;;;0.70;0.30;;;14.10;99.90;;;;;;4899714;29;20456;-87
2021/10/21 12:15:57;;;;;;;0.30;0.20;;;14.10;99.90;;;;;;4899437;29;20438;-85
2021/10/21 12:18:26;;;;;;;0.50;0.50;;;14.10;99.90;;;;;;4899327;29;20461;-90
2021/10/21 12:20:59;;;;;;;0.30;0.20;;;14.00;99.90;;;;;;4898688;29;20457;-90
2021/10/21 12:23:30;;;;;;;0.40;0.30;;;14.00;99.90;;;;;;4899777;29;20796;-90
2021/10/21 12:25:58;;;;;;;0.30;0.20;;;14.00;99.90;;;;;;4899806;29;20488;-91
2021/10/21 12:28:37;;;;;;;0.37;0.30;;;14.00;99.90;;;;;;4899076;29;20492;-91
2021/10/21 12:31:20;;;;;;;0.30;0.20;;;13.90;99.90;;;;;;4899298;29;20449;-89
2021/10/21 12:33:53;;;;;;;0.30;0.30;;;13.90;99.90;;;;;;4899327;29;20489;-90
2021/10/21 12:36:22;;;;;;;0.30;0.30;;;13.90;99.90;;;;;;4899166;29;20441;-90
2021/10/21 12:38:52;;;;;;;0.40;0.27;;;13.80;99.90;;;;;;4899428;29;20805;-91
2021/10/21 12:41:19;;;;;;;0.30;0.30;;;13.70;99.90;;;;;;4900066;29;20469;-93
2021/10/21 12:44:00;;;;;;;0.30;0.20;;;13.60;99.90;;;;;;4899042;29;20452;-88
2021/10/21 12:46:28;;;;;;;2.83;0.30;;;13.60;99.90;;;;;;4898875;29;20456;-91
2021/10/21 12:49:09;;;;;;;0.50;0.40;;;13.60;99.90;;;;;;4899190;29;20479;-92
2021/10/21 12:51:38;;;;;;;0.40;0.30;;;13.50;99.90;;;;;;4899285;29;20477;-91
2021/10/21 12:54:05;;;;;;;0.30;0.30;;;13.50;99.90;;;;;;4899267;29;20457;-92
2021/10/21 12:56:34;;;;;;;0.30;0.20;;;13.40;99.90;;;;;;4899288;29;20890;-92
2021/10/21 12:59:02;;;;;;;0.40;0.30;;;13.30;99.90;;;;;;4899425;29;20437;-92
2021/10/21 13:01:50;;;;;;;0.40;0.40;;;13.20;99.90;;;;;;4899056;29;20484;-93
2021/10/21 13:04:54;;;;;;;0.83;0.40;;;13.20;99.90;;;;;;4898653;29;20457;-92
2021/10/21 13:07:25;;;;;;;0.40;0.30;;;13.10;99.90;;;;;;4894676;29;20465;-91
2021/10/21 13:09:52;;;;;;;0.30;0.20;;;13.10;99.90;;;;;;4899793;29;20446;-93
2021/10/21 13:12:20;;;;;;;0.30;0.30;;;13.10;99.90;;;;;;4898883;29;20484;-93
2021/10/21 13:14:49;;;;;;;0.30;0.30;;;13.10;99.90;;;;;;4898964;29;20461;-93
2021/10/21 13:17:16;;;;;;;0.30;0.23;;;13.10;99.90;;;;;;4899301;29;20424;-92
2021/10/21 13:19:43;;;;;;;0.30;0.30;;;13.10;99.90;;;;;;4899994;29;20452;-93
2021/10/21 13:22:10;;;;;;;0.30;0.30;;;13.00;99.90;;;;;;4899571;29;20480;-93